sensor_id;sensor_type;location;lat;lon;timestamp;temperature;humidity
16980;DHT22;42288;52.182;21.156;2023-07-28T00:01:02;15.70;99.90
16980;DHT22;42288;52.182;21.156;2023-07-28T00:03:27;15.70;99.90
16980;DHT22;42288;52.182;21.156;2023-07-28T00:05:53;15.60;99.90
16980;DHT22;42288;52.182;21.156;2023-07-28T00:08:18;15.60;99.90
16980;DHT22;42288;52.182;21.156;2023-07-28T00:10:44;15.60;99.90
16980;DHT22;42288;52.182;21.156;2023-07-28T00:13:09;15.60;99.90
16980;DHT22;42288;52.182;21.156;2023-07-28T00:15:35;15.60;99.90
16980;DHT22;42288;52.182;21.156;2023-07-28T00:18:01;15.70;99.90
16980;DHT22;42288;52.182;21.156;2023-07-28T00:20:27;15.70;99.90
16980;DHT22;42288;52.182;21.156;2023-07-28T00:22:53;15.70;99.90
16980;DHT22;42288;52.182;21.156;2023-07-28T00:25:19;15.80;99.90
16980;DHT22;42288;52.182;21.156;2023-07-28T00:27:44;15.70;99.90
16980;DHT22;42288;52.182;21.156;2023-07-28T00:30:11;15.70;99.90
16980;DHT22;42288;52.182;21.156;2023-07-28T00:32:36;15.80;99.90
16980;DHT22;42288;52.182;21.156;2023-07-28T00:35:02;15.80;99.90
16980;DHT22;42288;52.182;21.156;2023-07-28T00:37:28;15.90;99.90
16980;DHT22;42288;52.182;21.156;2023-07-28T00:39:54;15.90;99.90
16980;DHT22;42288;52.182;21.156;2023-07-28T00:42:19;15.90;99.90
16980;DHT22;42288;52.182;21.156;2023-07-28T00:44:45;15.90;99.90
16980;DHT22;42288;52.182;21.156;2023-07-28T00:47:11;15.90;99.90
16980;DHT22;42288;52.182;21.156;2023-07-28T00:49:38;15.90;99.90
16980;DHT22;42288;52.182;21.156;2023-07-28T00:52:07;15.90;99.90
16980;DHT22;42288;52.182;21.156;2023-07-28T00:54:33;15.80;99.90
16980;DHT22;42288;52.182;21.156;2023-07-28T00:56:59;15.80;99.90
16980;DHT22;42288;52.182;21.156;2023-07-28T00:59:26;15.80;99.90
16980;DHT22;42288;52.182;21.156;2023-07-28T01:01:52;15.80;99.90
16980;DHT22;42288;52.182;21.156;2023-07-28T01:04:18;15.80;99.90
16980;DHT22;42288;52.182;21.156;2023-07-28T01:09:13;15.80;99.90
16980;DHT22;42288;52.182;21.156;2023-07-28T01:11:56;15.80;99.90
16980;DHT22;42288;52.182;21.156;2023-07-28T01:14:23;15.80;99.90
16980;DHT22;42288;52.182;21.156;2023-07-28T01:16:49;15.80;99.90
16980;DHT22;42288;52.182;21.156;2023-07-28T01:19:16;15.80;99.90
16980;DHT22;42288;52.182;21.156;2023-07-28T01:21:45;15.80;99.90
16980;DHT22;42288;52.182;21.156;2023-07-28T01:26:39;15.80;99.90
16980;DHT22;42288;52.182;21.156;2023-07-28T01:29:05;15.80;99.90
16980;DHT22;42288;52.182;21.156;2023-07-28T01:31:32;15.80;99.90
16980;DHT22;42288;52.182;21.156;2023-07-28T01:33:57;15.80;99.90
16980;DHT22;42288;52.182;21.156;2023-07-28T01:36:23;15.80;99.90
16980;DHT22;42288;52.182;21.156;2023-07-28T01:38:48;15.80;99.90
16980;DHT22;42288;52.182;21.156;2023-07-28T01:41:14;15.70;99.90
16980;DHT22;42288;52.182;21.156;2023-07-28T01:43:40;15.80;99.90
16980;DHT22;42288;52.182;21.156;2023-07-28T01:46:07;15.70;99.90
16980;DHT22;42288;52.182;21.156;2023-07-28T01:48:32;15.80;99.90
16980;DHT22;42288;52.182;21.156;2023-07-28T01:50:58;15.80;99.90
16980;DHT22;42288;52.182;21.156;2023-07-28T01:53:24;15.70;99.90
16980;DHT22;42288;52.182;21.156;2023-07-28T01:55:49;15.70;99.90
16980;DHT22;42288;52.182;21.156;2023-07-28T01:58:15;15.80;99.90
16980;DHT22;42288;52.182;21.156;2023-07-28T02:00:40;15.80;99.90
16980;DHT22;42288;52.182;21.156;2023-07-28T02:03:06;15.80;99.90
16980;DHT22;42288;52.182;21.156;2023-07-28T02:05:32;15.80;99.90
16980;DHT22;42288;52.182;21.156;2023-07-28T02:07:58;15.80;99.90
16980;DHT22;42288;52.182;21.156;2023-07-28T02:10:26;15.80;99.90
16980;DHT22;42288;52.182;21.156;2023-07-28T02:12:51;15.80;99.90
16980;DHT22;42288;52.182;21.156;2023-07-28T02:15:17;15.70;99.90
16980;DHT22;42288;52.182;21.156;2023-07-28T02:17:43;15.80;99.90
16980;DHT22;42288;52.182;21.156;2023-07-28T02:20:08;15.80;99.90
16980;DHT22;42288;52.182;21.156;2023-07-28T02:22:39;15.80;99.90
16980;DHT22;42288;52.182;21.156;2023-07-28T02:25:05;15.80;99.90
16980;DHT22;42288;52.182;21.156;2023-07-28T02:27:31;15.80;99.90
16980;DHT22;42288;52.182;21.156;2023-07-28T02:29:56;15.80;99.90
16980;DHT22;42288;52.182;21.156;2023-07-28T02:32:22;15.80;99.90
16980;DHT22;42288;52.182;21.156;2023-07-28T02:34:48;15.80;99.90
16980;DHT22;42288;52.182;21.156;2023-07-28T02:37:14;15.80;99.90
16980;DHT22;42288;52.182;21.156;2023-07-28T02:39:40;15.80;99.90
16980;DHT22;42288;52.182;21.156;2023-07-28T02:42:06;15.70;99.90
16980;DHT22;42288;52.182;21.156;2023-07-28T02:44:31;15.80;99.90
16980;DHT22;42288;52.182;21.156;2023-07-28T02:46:57;15.80;99.90
16980;DHT22;42288;52.182;21.156;2023-07-28T02:49:23;15.80;99.90
16980;DHT22;42288;52.182;21.156;2023-07-28T02:51:48;15.80;99.90
16980;DHT22;42288;52.182;21.156;2023-07-28T02:54:14;15.90;99.90
16980;DHT22;42288;52.182;21.156;2023-07-28T02:56:39;15.90;99.90
16980;DHT22;42288;52.182;21.156;2023-07-28T02:59:05;15.90;99.90
16980;DHT22;42288;52.182;21.156;2023-07-28T03:01:31;15.80;99.90
16980;DHT22;42288;52.182;21.156;2023-07-28T03:04:01;15.80;99.90
16980;DHT22;42288;52.182;21.156;2023-07-28T03:06:27;15.80;99.90
16980;DHT22;42288;52.182;21.156;2023-07-28T03:08:52;15.80;99.90
16980;DHT22;42288;52.182;21.156;2023-07-28T03:11:18;15.80;99.90
16980;DHT22;42288;52.182;21.156;2023-07-28T03:13:43;15.90;99.90
16980;DHT22;42288;52.182;21.156;2023-07-28T03:16:09;15.90;99.90
16980;DHT22;42288;52.182;21.156;2023-07-28T03:18:35;15.80;99.90
16980;DHT22;42288;52.182;21.156;2023-07-28T03:21:01;15.90;99.90
16980;DHT22;42288;52.182;21.156;2023-07-28T03:23:26;15.80;99.90
16980;DHT22;42288;52.182;21.156;2023-07-28T03:25:52;15.70;99.90
16980;DHT22;42288;52.182;21.156;2023-07-28T03:28:18;15.80;99.90
16980;DHT22;42288;52.182;21.156;2023-07-28T03:30:43;15.80;99.90
16980;DHT22;42288;52.182;21.156;2023-07-28T03:33:09;15.80;99.90
16980;DHT22;42288;52.182;21.156;2023-07-28T03:35:34;15.80;99.90
16980;DHT22;42288;52.182;21.156;2023-07-28T03:38:00;15.80;99.90
16980;DHT22;42288;52.182;21.156;2023-07-28T03:40:26;15.90;99.90
16980;DHT22;42288;52.182;21.156;2023-07-28T03:42:52;15.90;99.90
16980;DHT22;42288;52.182;21.156;2023-07-28T03:45:18;15.90;99.90
16980;DHT22;42288;52.182;21.156;2023-07-28T03:47:43;15.90;99.90
16980;DHT22;42288;52.182;21.156;2023-07-28T03:50:09;15.90;99.90
16980;DHT22;42288;52.182;21.156;2023-07-28T03:52:35;15.90;99.90
16980;DHT22;42288;52.182;21.156;2023-07-28T03:55:00;15.90;99.90
16980;DHT22;42288;52.182;21.156;2023-07-28T03:57:26;15.90;99.90
16980;DHT22;42288;52.182;21.156;2023-07-28T03:59:51;15.90;99.90
16980;DHT22;42288;52.182;21.156;2023-07-28T04:02:17;16.00;99.90
16980;DHT22;42288;52.182;21.156;2023-07-28T04:04:42;16.00;99.90
16980;DHT22;42288;52.182;21.156;2023-07-28T04:07:08;16.00;99.90
16980;DHT22;42288;52.182;21.156;2023-07-28T04:09:34;16.00;99.90
16980;DHT22;42288;52.182;21.156;2023-07-28T04:11:59;16.10;99.90
16980;DHT22;42288;52.182;21.156;2023-07-28T04:14:25;16.10;99.90
16980;DHT22;42288;52.182;21.156;2023-07-28T04:16:50;16.10;99.90
16980;DHT22;42288;52.182;21.156;2023-07-28T04:19:16;16.10;99.90
16980;DHT22;42288;52.182;21.156;2023-07-28T04:21:41;16.10;99.90
16980;DHT22;42288;52.182;21.156;2023-07-28T04:24:08;16.20;99.90
16980;DHT22;42288;52.182;21.156;2023-07-28T04:26:34;16.20;99.90
16980;DHT22;42288;52.182;21.156;2023-07-28T04:28:59;16.30;99.90
16980;DHT22;42288;52.182;21.156;2023-07-28T04:31:25;16.30;99.90
16980;DHT22;42288;52.182;21.156;2023-07-28T04:33:51;16.30;99.90
16980;DHT22;42288;52.182;21.156;2023-07-28T04:36:16;16.30;99.90
16980;DHT22;42288;52.182;21.156;2023-07-28T04:38:42;16.40;99.90
16980;DHT22;42288;52.182;21.156;2023-07-28T04:41:07;16.40;99.90
16980;DHT22;42288;52.182;21.156;2023-07-28T04:43:33;16.40;99.90
16980;DHT22;42288;52.182;21.156;2023-07-28T04:45:58;16.40;99.90
16980;DHT22;42288;52.182;21.156;2023-07-28T04:48:24;16.40;99.90
16980;DHT22;42288;52.182;21.156;2023-07-28T04:50:49;16.40;99.90
16980;DHT22;42288;52.182;21.156;2023-07-28T04:53:15;16.40;99.90
16980;DHT22;42288;52.182;21.156;2023-07-28T04:55:41;16.50;99.90
16980;DHT22;42288;52.182;21.156;2023-07-28T04:58:06;16.40;99.90
16980;DHT22;42288;52.182;21.156;2023-07-28T05:00:32;16.50;99.90
16980;DHT22;42288;52.182;21.156;2023-07-28T05:02:57;16.50;99.90
16980;DHT22;42288;52.182;21.156;2023-07-28T05:05:23;16.60;99.90
16980;DHT22;42288;52.182;21.156;2023-07-28T05:07:48;16.60;99.90
16980;DHT22;42288;52.182;21.156;2023-07-28T05:10:14;16.70;99.90
16980;DHT22;42288;52.182;21.156;2023-07-28T05:12:42;16.80;99.90
16980;DHT22;42288;52.182;21.156;2023-07-28T05:15:08;16.80;99.90
16980;DHT22;42288;52.182;21.156;2023-07-28T05:17:36;16.90;99.90
16980;DHT22;42288;52.182;21.156;2023-07-28T05:20:02;16.90;99.90
16980;DHT22;42288;52.182;21.156;2023-07-28T05:22:28;16.90;99.90
16980;DHT22;42288;52.182;21.156;2023-07-28T05:24:54;17.00;99.90
16980;DHT22;42288;52.182;21.156;2023-07-28T05:27:19;17.00;99.90
16980;DHT22;42288;52.182;21.156;2023-07-28T05:29:45;17.00;99.90
16980;DHT22;42288;52.182;21.156;2023-07-28T05:32:10;17.00;99.90
16980;DHT22;42288;52.182;21.156;2023-07-28T05:34:36;17.10;99.90
16980;DHT22;42288;52.182;21.156;2023-07-28T05:37:02;17.10;99.90
16980;DHT22;42288;52.182;21.156;2023-07-28T05:39:27;17.10;99.90
16980;DHT22;42288;52.182;21.156;2023-07-28T05:41:53;17.20;99.90
16980;DHT22;42288;52.182;21.156;2023-07-28T05:44:19;17.30;99.90
16980;DHT22;42288;52.182;21.156;2023-07-28T05:46:45;17.30;99.90
16980;DHT22;42288;52.182;21.156;2023-07-28T05:49:13;17.30;99.90
16980;DHT22;42288;52.182;21.156;2023-07-28T05:51:39;17.40;99.90
16980;DHT22;42288;52.182;21.156;2023-07-28T05:54:04;17.40;99.90
16980;DHT22;42288;52.182;21.156;2023-07-28T05:56:30;17.50;99.90
16980;DHT22;42288;52.182;21.156;2023-07-28T05:58:55;17.50;99.90
16980;DHT22;42288;52.182;21.156;2023-07-28T06:01:21;17.50;99.90
16980;DHT22;42288;52.182;21.156;2023-07-28T06:03:46;17.60;99.90
16980;DHT22;42288;52.182;21.156;2023-07-28T06:06:12;17.70;99.90
16980;DHT22;42288;52.182;21.156;2023-07-28T06:08:38;17.70;99.90
16980;DHT22;42288;52.182;21.156;2023-07-28T06:11:05;17.80;99.90
16980;DHT22;42288;52.182;21.156;2023-07-28T06:13:31;17.80;99.90
16980;DHT22;42288;52.182;21.156;2023-07-28T06:15:57;17.80;99.90
16980;DHT22;42288;52.182;21.156;2023-07-28T06:18:24;17.80;99.90
16980;DHT22;42288;52.182;21.156;2023-07-28T06:20:49;17.90;99.90
16980;DHT22;42288;52.182;21.156;2023-07-28T06:23:15;18.00;99.90
16980;DHT22;42288;52.182;21.156;2023-07-28T06:25:41;18.10;99.90
16980;DHT22;42288;52.182;21.156;2023-07-28T06:28:12;18.10;99.90
16980;DHT22;42288;52.182;21.156;2023-07-28T06:30:38;18.20;99.90
16980;DHT22;42288;52.182;21.156;2023-07-28T06:33:08;18.30;99.90
16980;DHT22;42288;52.182;21.156;2023-07-28T06:35:34;18.40;99.90
16980;DHT22;42288;52.182;21.156;2023-07-28T06:38:01;18.50;99.90
16980;DHT22;42288;52.182;21.156;2023-07-28T06:40:27;18.50;99.90
16980;DHT22;42288;52.182;21.156;2023-07-28T06:42:53;18.50;99.90
16980;DHT22;42288;52.182;21.156;2023-07-28T06:45:20;18.50;99.90
16980;DHT22;42288;52.182;21.156;2023-07-28T06:47:45;18.50;99.90
16980;DHT22;42288;52.182;21.156;2023-07-28T06:50:11;18.50;99.90
16980;DHT22;42288;52.182;21.156;2023-07-28T06:52:37;18.50;99.90
16980;DHT22;42288;52.182;21.156;2023-07-28T06:55:03;18.50;99.90
16980;DHT22;42288;52.182;21.156;2023-07-28T06:57:29;18.50;99.90
16980;DHT22;42288;52.182;21.156;2023-07-28T06:59:56;18.60;99.90
16980;DHT22;42288;52.182;21.156;2023-07-28T07:02:21;18.60;99.90
16980;DHT22;42288;52.182;21.156;2023-07-28T07:04:47;18.70;99.90
16980;DHT22;42288;52.182;21.156;2023-07-28T07:07:13;18.70;99.90
16980;DHT22;42288;52.182;21.156;2023-07-28T07:09:38;18.60;99.90
16980;DHT22;42288;52.182;21.156;2023-07-28T07:12:04;18.60;99.90
16980;DHT22;42288;52.182;21.156;2023-07-28T07:14:31;18.60;99.90
16980;DHT22;42288;52.182;21.156;2023-07-28T07:16:56;18.70;99.90
16980;DHT22;42288;52.182;21.156;2023-07-28T07:19:22;18.50;99.90
16980;DHT22;42288;52.182;21.156;2023-07-28T07:21:47;18.50;99.90
16980;DHT22;42288;52.182;21.156;2023-07-28T07:24:14;18.50;99.90
16980;DHT22;42288;52.182;21.156;2023-07-28T07:26:40;18.50;99.90
16980;DHT22;42288;52.182;21.156;2023-07-28T07:29:07;18.30;99.90
16980;DHT22;42288;52.182;21.156;2023-07-28T07:31:33;18.20;99.90
16980;DHT22;42288;52.182;21.156;2023-07-28T07:33:59;18.20;99.90
16980;DHT22;42288;52.182;21.156;2023-07-28T07:36:25;18.10;99.90
16980;DHT22;42288;52.182;21.156;2023-07-28T07:38:50;18.00;99.90
16980;DHT22;42288;52.182;21.156;2023-07-28T07:41:17;18.00;99.90
16980;DHT22;42288;52.182;21.156;2023-07-28T07:43:46;17.90;99.90
16980;DHT22;42288;52.182;21.156;2023-07-28T07:46:12;18.00;99.90
16980;DHT22;42288;52.182;21.156;2023-07-28T07:48:38;18.00;99.90
16980;DHT22;42288;52.182;21.156;2023-07-28T07:51:03;17.90;99.90
16980;DHT22;42288;52.182;21.156;2023-07-28T07:53:29;17.90;99.90
16980;DHT22;42288;52.182;21.156;2023-07-28T07:55:55;17.90;99.90
16980;DHT22;42288;52.182;21.156;2023-07-28T07:58:20;17.70;99.90
16980;DHT22;42288;52.182;21.156;2023-07-28T08:00:46;17.60;99.90
16980;DHT22;42288;52.182;21.156;2023-07-28T08:03:11;17.70;99.90
16980;DHT22;42288;52.182;21.156;2023-07-28T08:05:37;17.60;99.90
16980;DHT22;42288;52.182;21.156;2023-07-28T08:08:03;17.60;99.90
16980;DHT22;42288;52.182;21.156;2023-07-28T08:10:30;17.70;99.90
16980;DHT22;42288;52.182;21.156;2023-07-28T08:12:56;17.80;99.90
16980;DHT22;42288;52.182;21.156;2023-07-28T08:15:21;17.80;99.90
16980;DHT22;42288;52.182;21.156;2023-07-28T08:17:47;17.90;99.90
16980;DHT22;42288;52.182;21.156;2023-07-28T08:20:12;17.90;99.90
16980;DHT22;42288;52.182;21.156;2023-07-28T08:22:38;17.80;99.90
16980;DHT22;42288;52.182;21.156;2023-07-28T08:25:05;17.70;99.90
16980;DHT22;42288;52.182;21.156;2023-07-28T08:27:30;17.80;99.90
16980;DHT22;42288;52.182;21.156;2023-07-28T08:29:56;17.80;99.90
16980;DHT22;42288;52.182;21.156;2023-07-28T08:32:21;17.70;99.90
16980;DHT22;42288;52.182;21.156;2023-07-28T08:34:47;17.80;99.90
16980;DHT22;42288;52.182;21.156;2023-07-28T08:37:13;17.80;99.90
16980;DHT22;42288;52.182;21.156;2023-07-28T08:39:39;17.90;99.90
16980;DHT22;42288;52.182;21.156;2023-07-28T08:42:05;18.00;99.90
16980;DHT22;42288;52.182;21.156;2023-07-28T08:44:32;18.10;99.90
16980;DHT22;42288;52.182;21.156;2023-07-28T08:47:02;18.20;99.90
16980;DHT22;42288;52.182;21.156;2023-07-28T08:49:29;18.10;99.90
16980;DHT22;42288;52.182;21.156;2023-07-28T08:52:00;18.10;99.90
16980;DHT22;42288;52.182;21.156;2023-07-28T08:54:26;18.20;99.90
16980;DHT22;42288;52.182;21.156;2023-07-28T08:56:51;18.10;99.90
16980;DHT22;42288;52.182;21.156;2023-07-28T08:59:25;18.20;99.90
16980;DHT22;42288;52.182;21.156;2023-07-28T09:01:53;18.10;99.90
16980;DHT22;42288;52.182;21.156;2023-07-28T09:04:20;18.20;99.90
16980;DHT22;42288;52.182;21.156;2023-07-28T09:06:46;18.20;99.90
16980;DHT22;42288;52.182;21.156;2023-07-28T09:09:13;18.20;99.90
16980;DHT22;42288;52.182;21.156;2023-07-28T09:11:52;18.20;99.90
16980;DHT22;42288;52.182;21.156;2023-07-28T09:14:19;18.30;99.90
16980;DHT22;42288;52.182;21.156;2023-07-28T09:16:46;18.30;99.90
16980;DHT22;42288;52.182;21.156;2023-07-28T09:19:12;18.40;99.90
16980;DHT22;42288;52.182;21.156;2023-07-28T09:21:39;18.50;99.90
16980;DHT22;42288;52.182;21.156;2023-07-28T09:24:13;18.50;99.90
16980;DHT22;42288;52.182;21.156;2023-07-28T09:26:44;18.50;99.90
16980;DHT22;42288;52.182;21.156;2023-07-28T09:29:19;18.60;99.90
16980;DHT22;42288;52.182;21.156;2023-07-28T09:31:49;18.60;99.90
16980;DHT22;42288;52.182;21.156;2023-07-28T09:34:28;18.50;99.90
16980;DHT22;42288;52.182;21.156;2023-07-28T09:36:54;18.60;99.90
16980;DHT22;42288;52.182;21.156;2023-07-28T09:39:21;18.70;99.90
16980;DHT22;42288;52.182;21.156;2023-07-28T09:41:47;18.70;99.90
16980;DHT22;42288;52.182;21.156;2023-07-28T09:44:13;18.70;99.90
16980;DHT22;42288;52.182;21.156;2023-07-28T09:46:51;18.80;99.90
16980;DHT22;42288;52.182;21.156;2023-07-28T09:49:41;19.00;99.90
16980;DHT22;42288;52.182;21.156;2023-07-28T09:52:09;19.00;99.90
16980;DHT22;42288;52.182;21.156;2023-07-28T09:54:39;19.00;99.90
16980;DHT22;42288;52.182;21.156;2023-07-28T09:57:10;19.10;99.90
16980;DHT22;42288;52.182;21.156;2023-07-28T09:59:38;19.10;99.90
16980;DHT22;42288;52.182;21.156;2023-07-28T10:02:04;19.20;99.90
16980;DHT22;42288;52.182;21.156;2023-07-28T10:04:31;19.10;99.90
16980;DHT22;42288;52.182;21.156;2023-07-28T10:06:57;19.00;99.90
16980;DHT22;42288;52.182;21.156;2023-07-28T10:09:28;19.00;99.90
16980;DHT22;42288;52.182;21.156;2023-07-28T10:11:55;19.10;99.90
16980;DHT22;42288;52.182;21.156;2023-07-28T10:14:31;19.30;99.90
16980;DHT22;42288;52.182;21.156;2023-07-28T10:16:58;19.50;99.90
16980;DHT22;42288;52.182;21.156;2023-07-28T10:19:27;19.40;99.90
16980;DHT22;42288;52.182;21.156;2023-07-28T10:22:07;19.50;99.90
16980;DHT22;42288;52.182;21.156;2023-07-28T10:25:02;19.50;99.90
16980;DHT22;42288;52.182;21.156;2023-07-28T10:27:31;19.50;99.90
16980;DHT22;42288;52.182;21.156;2023-07-28T10:29:58;19.50;99.90
16980;DHT22;42288;52.182;21.156;2023-07-28T10:32:28;19.60;99.90
16980;DHT22;42288;52.182;21.156;2023-07-28T10:35:02;19.60;99.90
16980;DHT22;42288;52.182;21.156;2023-07-28T10:37:31;19.60;99.90
16980;DHT22;42288;52.182;21.156;2023-07-28T10:40:22;19.60;99.90
16980;DHT22;42288;52.182;21.156;2023-07-28T10:42:48;19.70;99.90
16980;DHT22;42288;52.182;21.156;2023-07-28T10:45:14;19.80;99.90
16980;DHT22;42288;52.182;21.156;2023-07-28T10:47:41;19.90;99.90
16980;DHT22;42288;52.182;21.156;2023-07-28T10:50:10;19.90;99.90
16980;DHT22;42288;52.182;21.156;2023-07-28T10:52:46;19.80;99.90
16980;DHT22;42288;52.182;21.156;2023-07-28T10:55:13;19.80;99.90
16980;DHT22;42288;52.182;21.156;2023-07-28T10:57:41;19.70;99.90
16980;DHT22;42288;52.182;21.156;2023-07-28T11:00:07;19.80;99.90
16980;DHT22;42288;52.182;21.156;2023-07-28T11:02:36;19.80;99.90
16980;DHT22;42288;52.182;21.156;2023-07-28T11:05:06;19.70;99.90
16980;DHT22;42288;52.182;21.156;2023-07-28T11:07:32;19.90;99.90
16980;DHT22;42288;52.182;21.156;2023-07-28T11:10:01;19.90;99.90
16980;DHT22;42288;52.182;21.156;2023-07-28T11:12:26;20.20;99.90
16980;DHT22;42288;52.182;21.156;2023-07-28T11:14:52;20.20;99.90
16980;DHT22;42288;52.182;21.156;2023-07-28T11:17:18;20.20;99.90
16980;DHT22;42288;52.182;21.156;2023-07-28T11:19:43;20.30;99.90
16980;DHT22;42288;52.182;21.156;2023-07-28T11:22:09;20.30;99.90
16980;DHT22;42288;52.182;21.156;2023-07-28T11:24:35;20.10;99.90
16980;DHT22;42288;52.182;21.156;2023-07-28T11:27:00;20.00;99.90
16980;DHT22;42288;52.182;21.156;2023-07-28T11:29:28;20.10;99.90
16980;DHT22;42288;52.182;21.156;2023-07-28T11:31:54;20.00;99.90
16980;DHT22;42288;52.182;21.156;2023-07-28T11:34:19;20.30;99.90
16980;DHT22;42288;52.182;21.156;2023-07-28T11:36:45;20.40;99.90
16980;DHT22;42288;52.182;21.156;2023-07-28T11:39:11;20.60;99.90
16980;DHT22;42288;52.182;21.156;2023-07-28T11:41:37;20.90;99.90
16980;DHT22;42288;52.182;21.156;2023-07-28T11:44:05;21.00;99.90
16980;DHT22;42288;52.182;21.156;2023-07-28T11:46:39;21.30;99.90
16980;DHT22;42288;52.182;21.156;2023-07-28T11:49:18;21.70;99.90
16980;DHT22;42288;52.182;21.156;2023-07-28T11:51:49;22.00;99.90
16980;DHT22;42288;52.182;21.156;2023-07-28T11:54:16;22.30;99.90
16980;DHT22;42288;52.182;21.156;2023-07-28T11:56:43;22.70;99.90
16980;DHT22;42288;52.182;21.156;2023-07-28T11:59:11;22.70;99.90
16980;DHT22;42288;52.182;21.156;2023-07-28T12:01:56;22.50;99.90
16980;DHT22;42288;52.182;21.156;2023-07-28T12:12:12;23.30;99.90
16980;DHT22;42288;52.182;21.156;2023-07-28T12:14:38;23.40;99.90
16980;DHT22;42288;52.182;21.156;2023-07-28T12:17:12;23.40;99.90
16980;DHT22;42288;52.182;21.156;2023-07-28T12:19:42;23.40;99.90
16980;DHT22;42288;52.182;21.156;2023-07-28T12:22:19;23.40;99.90
16980;DHT22;42288;52.182;21.156;2023-07-28T12:24:45;23.40;99.90
16980;DHT22;42288;52.182;21.156;2023-07-28T12:27:10;23.40;99.90
16980;DHT22;42288;52.182;21.156;2023-07-28T12:29:38;23.40;99.90
16980;DHT22;42288;52.182;21.156;2023-07-28T12:32:04;23.50;99.90
16980;DHT22;42288;52.182;21.156;2023-07-28T12:34:30;23.60;99.90
16980;DHT22;42288;52.182;21.156;2023-07-28T12:36:56;23.60;99.90
16980;DHT22;42288;52.182;21.156;2023-07-28T12:39:22;23.50;99.90
16980;DHT22;42288;52.182;21.156;2023-07-28T12:41:49;23.40;99.90
16980;DHT22;42288;52.182;21.156;2023-07-28T12:44:14;23.40;99.90
16980;DHT22;42288;52.182;21.156;2023-07-28T12:46:40;23.50;99.90
16980;DHT22;42288;52.182;21.156;2023-07-28T12:49:06;23.80;99.90
16980;DHT22;42288;52.182;21.156;2023-07-28T12:51:32;23.80;99.90
16980;DHT22;42288;52.182;21.156;2023-07-28T12:53:58;23.90;99.90
16980;DHT22;42288;52.182;21.156;2023-07-28T12:56:23;23.80;99.90
16980;DHT22;42288;52.182;21.156;2023-07-28T12:58:49;23.50;99.90
16980;DHT22;42288;52.182;21.156;2023-07-28T13:01:15;23.40;99.90
16980;DHT22;42288;52.182;21.156;2023-07-28T13:03:40;23.40;99.90
16980;DHT22;42288;52.182;21.156;2023-07-28T13:06:06;23.40;99.90
16980;DHT22;42288;52.182;21.156;2023-07-28T13:08:31;23.40;99.90
16980;DHT22;42288;52.182;21.156;2023-07-28T13:10:57;23.40;99.90
16980;DHT22;42288;52.182;21.156;2023-07-28T13:13:23;23.30;99.90
16980;DHT22;42288;52.182;21.156;2023-07-28T13:15:48;23.10;99.90
16980;DHT22;42288;52.182;21.156;2023-07-28T13:18:14;23.10;99.90
16980;DHT22;42288;52.182;21.156;2023-07-28T13:20:40;23.10;99.90
16980;DHT22;42288;52.182;21.156;2023-07-28T13:23:05;23.00;99.90
16980;DHT22;42288;52.182;21.156;2023-07-28T13:25:31;23.00;99.90
16980;DHT22;42288;52.182;21.156;2023-07-28T13:27:56;22.90;99.90
16980;DHT22;42288;52.182;21.156;2023-07-28T13:30:22;22.70;99.90
16980;DHT22;42288;52.182;21.156;2023-07-28T13:32:48;22.60;99.90
16980;DHT22;42288;52.182;21.156;2023-07-28T13:35:13;22.50;99.90
16980;DHT22;42288;52.182;21.156;2023-07-28T13:37:40;22.40;99.90
16980;DHT22;42288;52.182;21.156;2023-07-28T13:40:06;22.40;99.90
16980;DHT22;42288;52.182;21.156;2023-07-28T13:42:31;22.40;99.90
16980;DHT22;42288;52.182;21.156;2023-07-28T13:44:57;22.20;99.90
16980;DHT22;42288;52.182;21.156;2023-07-28T13:47:23;22.20;99.90
16980;DHT22;42288;52.182;21.156;2023-07-28T13:49:48;22.30;99.90
16980;DHT22;42288;52.182;21.156;2023-07-28T13:52:14;22.30;99.90
16980;DHT22;42288;52.182;21.156;2023-07-28T13:54:39;22.30;99.90
16980;DHT22;42288;52.182;21.156;2023-07-28T13:57:05;22.60;99.90
16980;DHT22;42288;52.182;21.156;2023-07-28T13:59:31;22.90;99.90
16980;DHT22;42288;52.182;21.156;2023-07-28T14:01:56;22.80;99.90
16980;DHT22;42288;52.182;21.156;2023-07-28T14:04:23;22.70;99.90
16980;DHT22;42288;52.182;21.156;2023-07-28T14:06:49;22.90;99.90
16980;DHT22;42288;52.182;21.156;2023-07-28T14:09:15;23.10;99.90
16980;DHT22;42288;52.182;21.156;2023-07-28T14:11:40;23.40;99.90
16980;DHT22;42288;52.182;21.156;2023-07-28T14:14:06;23.50;99.90
16980;DHT22;42288;52.182;21.156;2023-07-28T14:16:31;23.40;99.90
16980;DHT22;42288;52.182;21.156;2023-07-28T14:18:57;23.30;99.90
16980;DHT22;42288;52.182;21.156;2023-07-28T14:21:23;23.20;99.90
16980;DHT22;42288;52.182;21.156;2023-07-28T14:23:48;23.30;99.90
16980;DHT22;42288;52.182;21.156;2023-07-28T14:26:14;23.20;99.90
16980;DHT22;42288;52.182;21.156;2023-07-28T14:28:40;23.00;99.90
16980;DHT22;42288;52.182;21.156;2023-07-28T14:31:05;22.90;99.90
16980;DHT22;42288;52.182;21.156;2023-07-28T14:33:31;22.80;99.90
16980;DHT22;42288;52.182;21.156;2023-07-28T14:35:56;22.70;99.90
16980;DHT22;42288;52.182;21.156;2023-07-28T14:38:22;22.50;99.90
16980;DHT22;42288;52.182;21.156;2023-07-28T14:40:47;22.40;99.90
16980;DHT22;42288;52.182;21.156;2023-07-28T14:43:14;22.50;99.90
16980;DHT22;42288;52.182;21.156;2023-07-28T14:45:40;22.50;99.90
16980;DHT22;42288;52.182;21.156;2023-07-28T14:48:06;22.50;99.90
16980;DHT22;42288;52.182;21.156;2023-07-28T14:50:31;22.40;99.90
16980;DHT22;42288;52.182;21.156;2023-07-28T14:53:00;22.40;99.90
16980;DHT22;42288;52.182;21.156;2023-07-28T14:55:26;22.30;99.90
16980;DHT22;42288;52.182;21.156;2023-07-28T14:57:52;22.30;99.90
16980;DHT22;42288;52.182;21.156;2023-07-28T15:00:18;22.30;99.90
16980;DHT22;42288;52.182;21.156;2023-07-28T15:02:43;22.20;99.90
16980;DHT22;42288;52.182;21.156;2023-07-28T15:05:09;22.20;99.90
16980;DHT22;42288;52.182;21.156;2023-07-28T15:07:35;22.20;99.90
16980;DHT22;42288;52.182;21.156;2023-07-28T15:10:02;22.10;99.90
16980;DHT22;42288;52.182;21.156;2023-07-28T15:12:27;22.10;99.90
16980;DHT22;42288;52.182;21.156;2023-07-28T15:14:53;22.10;99.90
16980;DHT22;42288;52.182;21.156;2023-07-28T15:17:19;22.00;99.90
16980;DHT22;42288;52.182;21.156;2023-07-28T15:19:44;22.00;99.90
16980;DHT22;42288;52.182;21.156;2023-07-28T15:22:10;22.00;99.90
16980;DHT22;42288;52.182;21.156;2023-07-28T15:24:35;21.90;99.90